createdAt,value
2022-12-20T00:00:34.403Z,99.72
2022-12-20T00:01:34.491Z,98.84
2022-12-20T00:02:33.564Z,98.78
2022-12-20T00:03:36.385Z,98.47
2022-12-20T00:04:33.921Z,98.84
2022-12-20T00:05:34.659Z,97.53
2022-12-20T00:06:35.419Z,96.95
2022-12-20T00:07:34.343Z,97.72
2022-12-20T00:08:34.424Z,98.08
2022-12-20T00:09:34.373Z,98.71
2022-12-20T00:10:36.383Z,98.39
2022-12-20T00:11:33.919Z,98.82
2022-12-20T00:12:33.928Z,98.92
2022-12-20T00:13:33.848Z,98.71
2022-12-20T00:14:34.896Z,98.92
2022-12-20T00:15:34.908Z,99.13
2022-12-20T00:16:32.422Z,99.85
2022-12-20T00:17:33.006Z,99.65
2022-12-20T00:18:33.382Z,99.65
2022-12-20T00:19:36.394Z,99.29
2022-12-20T00:20:33.571Z,99.75
2022-12-20T00:21:32.836Z,99.91
2022-12-20T00:22:35.430Z,99.65
2022-12-20T00:23:33.411Z,99.99
2022-12-20T00:24:34.405Z,99.99
2022-12-20T00:25:33.342Z,99.99
2022-12-20T00:26:34.421Z,99.99
2022-12-20T00:27:35.343Z,99.99
2022-12-20T00:28:34.848Z,99.99
2022-12-20T00:29:33.914Z,99.99
2022-12-20T00:30:32.902Z,99.99
2022-12-20T00:31:34.355Z,99.99
2022-12-20T00:32:34.884Z,99.99
2022-12-20T00:33:34.343Z,99.76
2022-12-20T00:34:39.498Z,99.99
2022-12-20T00:35:34.857Z,99.87
2022-12-20T00:36:34.868Z,99.55
2022-12-20T00:37:35.839Z,99.76
2022-12-20T00:38:34.352Z,99.45
2022-12-20T00:39:34.929Z,99.55
2022-12-20T00:40:33.404Z,99.76
2022-12-20T00:41:33.387Z,99.76
2022-12-20T00:42:34.847Z,99.76
2022-12-20T00:43:34.382Z,99.66
2022-12-20T00:44:34.385Z,98.93
2022-12-20T00:45:32.409Z,98.31
2022-12-20T00:46:33.936Z,99.14
2022-12-20T00:47:35.377Z,98.62
2022-12-20T00:48:33.916Z,98.87
2022-12-20T00:49:33.843Z,98.87
2022-12-20T00:50:34.346Z,98.77
2022-12-20T00:51:36.351Z,99.81
2022-12-20T00:52:34.862Z,99.81
2022-12-20T00:53:33.843Z,99.99
2022-12-20T00:54:32.347Z,99.99
2022-12-20T00:55:32.430Z,99.99
2022-12-20T00:56:33.342Z,99.99
2022-12-20T00:57:33.931Z,99.98
2022-12-20T00:58:33.385Z,99.76
2022-12-20T00:59:33.275Z,99.98
2022-12-20T01:00:34.982Z,99.99
2022-12-20T01:01:36.048Z,99.87
2022-12-20T01:02:35.535Z,99.99
2022-12-20T01:03:32.476Z,99.93
2022-12-20T01:04:33.426Z,99.93
2022-12-20T01:05:32.595Z,99.99
2022-12-20T01:06:34.405Z,99.99
2022-12-20T01:07:34.345Z,99.72
2022-12-20T01:08:34.391Z,99.99
2022-12-20T01:09:33.444Z,99.99
2022-12-20T01:10:32.896Z,99.20
2022-12-20T01:11:33.379Z,99.36
2022-12-20T01:12:32.595Z,99.57
2022-12-20T01:13:35.365Z,99.26
2022-12-20T01:14:34.346Z,99.57
2022-12-20T01:15:32.926Z,99.46
2022-12-20T01:16:33.905Z,99.67
2022-12-20T01:17:33.916Z,99.67
2022-12-20T01:18:35.349Z,98.63
2022-12-20T01:19:33.350Z,98.57
2022-12-20T01:20:32.849Z,98.47
2022-12-20T01:21:35.875Z,97.95
2022-12-20T01:22:42.400Z,98.20
2022-12-20T01:23:34.416Z,98.04
2022-12-20T01:24:33.864Z,98.04
2022-12-20T01:25:35.347Z,98.04
2022-12-20T01:26:35.348Z,98.66
2022-12-20T01:27:33.083Z,98.66
2022-12-20T01:28:34.848Z,98.46
2022-12-20T01:29:32.921Z,98.46
2022-12-20T01:30:34.844Z,98.66
2022-12-20T01:31:34.953Z,98.97
2022-12-20T01:32:33.411Z,99.29
2022-12-20T01:33:33.848Z,99.99
2022-12-20T01:34:34.860Z,99.91
2022-12-20T01:35:32.849Z,99.99
2022-12-20T01:36:33.853Z,99.99
2022-12-20T01:37:32.369Z,99.99
2022-12-20T01:38:33.914Z,99.99
2022-12-20T01:39:32.078Z,99.99
2022-12-20T01:40:34.848Z,99.99
2022-12-20T01:41:32.849Z,99.99
2022-12-20T01:42:33.381Z,99.99
2022-12-20T01:43:34.371Z,99.99
2022-12-20T01:44:33.909Z,99.99
2022-12-20T01:45:34.397Z,99.99
2022-12-20T01:46:35.457Z,99.99
2022-12-20T01:47:33.352Z,99.99
2022-12-20T01:48:31.927Z,99.99
2022-12-20T01:49:33.348Z,99.99
2022-12-20T01:50:33.594Z,99.99
2022-12-20T01:51:32.581Z,99.99
2022-12-20T01:52:31.055Z,99.99
2022-12-20T01:53:31.063Z,99.99
2022-12-20T01:54:31.040Z,99.99
2022-12-20T01:55:31.040Z,99.99
2022-12-20T01:56:31.026Z,99.99
2022-12-20T01:57:31.005Z,99.99
2022-12-20T01:58:31.050Z,99.99
2022-12-20T01:59:31.009Z,99.99
2022-12-20T02:00:30.981Z,99.99
2022-12-20T02:01:31.033Z,99.99
2022-12-20T02:02:31.050Z,99.99
2022-12-20T02:03:31.093Z,99.99
2022-12-20T02:04:30.976Z,99.99
2022-12-20T02:05:30.963Z,99.99
2022-12-20T02:06:30.932Z,99.99
2022-12-20T02:07:30.930Z,99.99
2022-12-20T02:08:30.940Z,99.99
2022-12-20T02:09:30.908Z,99.99
2022-12-20T02:10:30.910Z,99.99
2022-12-20T02:11:30.895Z,99.99
2022-12-20T02:12:30.889Z,99.99
2022-12-20T02:13:30.950Z,99.99
2022-12-20T02:14:30.875Z,99.99
2022-12-20T02:15:30.872Z,99.99
2022-12-20T02:16:30.890Z,99.99
2022-12-20T02:17:30.857Z,99.99
2022-12-20T02:18:30.879Z,99.99
2022-12-20T02:19:30.834Z,99.99
2022-12-20T02:20:30.832Z,99.99
2022-12-20T02:21:30.821Z,99.99
2022-12-20T02:22:30.814Z,99.99
2022-12-20T02:23:30.839Z,99.99
2022-12-20T02:24:30.802Z,99.99
2022-12-20T02:25:30.792Z,99.99
2022-12-20T02:26:30.808Z,99.51
2022-12-20T02:27:30.790Z,99.99
2022-12-20T02:28:30.784Z,99.99
2022-12-20T02:29:30.762Z,99.99
2022-12-20T02:30:30.750Z,99.99
2022-12-20T02:31:30.766Z,99.99
2022-12-20T02:32:30.737Z,99.99
2022-12-20T02:33:30.756Z,99.99
2022-12-20T02:34:30.717Z,99.99
2022-12-20T02:35:31.575Z,99.72
2022-12-20T02:36:30.712Z,99.99
2022-12-20T02:37:30.700Z,99.99
2022-12-20T02:38:30.730Z,99.99
2022-12-20T02:39:30.682Z,99.99
2022-12-20T02:40:30.672Z,99.99
2022-12-20T02:41:30.663Z,99.99
2022-12-20T02:42:30.671Z,99.99
2022-12-20T02:43:30.675Z,99.99
2022-12-20T02:44:30.644Z,99.99
2022-12-20T02:45:30.630Z,99.94
2022-12-20T02:46:30.677Z,99.99
2022-12-20T02:47:30.614Z,99.99
2022-12-20T02:48:30.640Z,99.99
2022-12-20T02:49:30.608Z,99.32
2022-12-20T02:50:30.613Z,99.73
2022-12-20T02:51:30.588Z,99.99
2022-12-20T02:52:30.578Z,99.99
2022-12-20T02:53:30.596Z,99.21
2022-12-20T02:54:30.567Z,99.57
2022-12-20T02:55:30.571Z,99.99
2022-12-20T02:56:30.559Z,99.88
2022-12-20T02:57:30.550Z,99.99
2022-12-20T02:58:30.564Z,99.99
2022-12-20T02:59:30.539Z,99.99
2022-12-20T03:00:30.517Z,99.99
2022-12-20T03:01:30.680Z,99.99
2022-12-20T03:02:30.719Z,99.99
2022-12-20T03:03:30.581Z,99.88
2022-12-20T03:04:30.492Z,99.46
2022-12-20T03:05:30.480Z,99.77
2022-12-20T03:06:30.479Z,99.67
2022-12-20T03:07:30.471Z,99.67
2022-12-20T03:08:30.503Z,99.99
2022-12-20T03:09:30.472Z,99.99
2022-12-20T03:10:30.444Z,99.99
2022-12-20T03:11:30.436Z,99.99
2022-12-20T03:12:30.436Z,99.99
2022-12-20T03:13:30.460Z,99.99
2022-12-20T03:14:30.427Z,99.99
2022-12-20T03:15:30.409Z,99.99
2022-12-20T03:16:30.449Z,99.99
2022-12-20T03:17:30.392Z,99.99
2022-12-20T03:18:30.412Z,99.99
2022-12-20T03:19:30.382Z,99.99
2022-12-20T03:20:30.383Z,99.99
2022-12-20T03:21:30.361Z,99.99
2022-12-20T03:22:30.347Z,99.99
2022-12-20T03:23:30.370Z,99.99
2022-12-20T03:24:30.340Z,99.99
2022-12-20T03:25:30.332Z,99.99
2022-12-20T03:26:30.330Z,99.99
2022-12-20T03:27:30.337Z,99.99
2022-12-20T03:28:30.395Z,99.99
2022-12-20T03:29:30.297Z,99.99
2022-12-20T03:30:30.310Z,99.99
2022-12-20T03:31:30.372Z,99.99
2022-12-20T03:32:30.279Z,99.99
2022-12-20T03:33:30.268Z,99.99
2022-12-20T03:34:30.293Z,99.99
2022-12-20T03:35:30.252Z,99.99
2022-12-20T03:36:30.246Z,99.99
2022-12-20T03:37:30.237Z,99.99
2022-12-20T03:38:30.234Z,99.99
2022-12-20T03:39:30.269Z,99.99
2022-12-20T03:40:30.206Z,99.99
2022-12-20T03:41:30.215Z,99.99
2022-12-20T03:42:30.220Z,99.99
2022-12-20T03:43:30.215Z,99.99
2022-12-20T03:44:30.276Z,99.99
2022-12-20T03:45:30.183Z,99.99
2022-12-20T03:46:30.241Z,99.99
2022-12-20T03:47:30.167Z,99.99
2022-12-20T03:48:30.153Z,99.99
2022-12-20T03:49:30.177Z,99.99
2022-12-20T03:50:30.147Z,99.99
2022-12-20T03:51:30.134Z,99.99
2022-12-20T03:52:30.128Z,99.99
2022-12-20T03:53:30.126Z,99.99
2022-12-20T03:54:30.134Z,99.99
2022-12-20T03:55:30.160Z,99.99
2022-12-20T03:56:30.093Z,99.99
2022-12-20T03:57:30.082Z,99.99
2022-12-20T03:58:30.075Z,99.99
2022-12-20T03:59:30.099Z,99.99
2022-12-20T04:00:30.074Z,99.99
2022-12-20T04:01:30.158Z,99.99
2022-12-20T04:02:31.184Z,99.99
2022-12-20T04:03:30.212Z,99.99
2022-12-20T04:04:30.068Z,99.99
2022-12-20T04:05:30.030Z,99.99
2022-12-20T04:06:30.046Z,99.99
2022-12-20T04:07:30.013Z,99.99
2022-12-20T04:08:30.010Z,99.99
2022-12-20T04:09:30.021Z,99.99
2022-12-20T04:10:29.987Z,99.99
2022-12-20T04:11:29.982Z,99.99
2022-12-20T04:12:29.974Z,99.99
2022-12-20T04:13:29.971Z,99.99
2022-12-20T04:14:29.980Z,99.99
2022-12-20T04:15:30.012Z,99.99
2022-12-20T04:16:30.072Z,99.99
2022-12-20T04:17:29.954Z,99.99
2022-12-20T04:18:29.933Z,99.99
2022-12-20T04:19:29.957Z,99.99
2022-12-20T04:20:29.908Z,99.99
2022-12-20T04:21:29.906Z,99.99
2022-12-20T04:22:29.900Z,99.99
2022-12-20T04:23:29.891Z,99.99
2022-12-20T04:24:29.907Z,99.99
2022-12-20T04:25:29.871Z,99.99
2022-12-20T04:26:29.867Z,99.99
2022-12-20T04:27:29.857Z,99.99
2022-12-20T04:28:29.853Z,99.99
2022-12-20T04:29:29.885Z,99.99
2022-12-20T04:30:29.857Z,99.99
2022-12-20T04:31:29.894Z,99.99
2022-12-20T04:32:29.820Z,99.99
2022-12-20T04:33:29.823Z,99.99
2022-12-20T04:34:29.852Z,99.99
2022-12-20T04:35:29.805Z,99.99
2022-12-20T04:36:29.800Z,99.99
2022-12-20T04:37:29.787Z,99.99
2022-12-20T04:38:29.784Z,99.99
2022-12-20T04:39:29.814Z,99.99
2022-12-20T04:40:29.757Z,99.99
2022-12-20T04:41:29.757Z,99.99
2022-12-20T04:42:29.747Z,99.99
2022-12-20T04:43:29.741Z,99.99
2022-12-20T04:44:29.762Z,99.99
2022-12-20T04:45:29.724Z,99.99
2022-12-20T04:46:29.779Z,99.99
2022-12-20T04:47:29.723Z,99.99
2022-12-20T04:48:55.747Z,99.99
2022-12-20T04:49:31.726Z,99.99
2022-12-20T04:50:29.695Z,99.99
2022-12-20T04:51:29.688Z,99.99
2022-12-20T04:52:29.673Z,99.99
2022-12-20T04:53:29.661Z,99.99
2022-12-20T04:54:29.666Z,99.99
2022-12-20T04:55:29.675Z,99.99
2022-12-20T04:56:29.641Z,99.99
2022-12-20T04:57:29.627Z,99.99
2022-12-20T04:58:29.632Z,99.99
2022-12-20T04:59:29.623Z,99.99
2022-12-20T05:00:29.639Z,99.99
2022-12-20T05:01:29.728Z,99.99
2022-12-20T05:02:29.670Z,99.99
2022-12-20T05:03:29.660Z,99.99
2022-12-20T05:04:35.313Z,99.99
2022-12-20T05:05:31.603Z,99.99
2022-12-20T05:06:29.600Z,99.99
2022-12-20T05:07:29.553Z,99.99
2022-12-20T05:08:30.554Z,99.99
2022-12-20T05:09:29.547Z,99.99
2022-12-20T05:10:29.560Z,99.99
2022-12-20T05:11:29.531Z,99.99
2022-12-20T05:12:29.526Z,99.99
2022-12-20T05:13:29.546Z,99.99
2022-12-20T05:14:29.515Z,99.99
2022-12-20T05:15:29.528Z,99.99
2022-12-20T05:16:29.543Z,99.99
2022-12-20T05:17:29.524Z,99.99
2022-12-20T05:18:29.480Z,99.99
2022-12-20T05:19:29.477Z,99.99
2022-12-20T05:20:29.488Z,99.99
2022-12-20T05:21:29.460Z,99.99
2022-12-20T05:22:29.453Z,99.99
2022-12-20T05:23:29.445Z,99.99
2022-12-20T05:24:29.432Z,99.99
2022-12-20T05:25:29.492Z,99.99
2022-12-20T05:26:29.422Z,99.99
2022-12-20T05:27:29.410Z,99.99
2022-12-20T05:28:29.406Z,99.99
2022-12-20T05:29:29.401Z,99.99
2022-12-20T05:30:30.421Z,99.99
2022-12-20T05:31:29.428Z,99.99
2022-12-20T05:32:29.374Z,99.99
2022-12-20T05:33:34.047Z,99.99
2022-12-20T05:34:31.375Z,99.99
2022-12-20T05:35:29.397Z,99.99
2022-12-20T05:36:29.343Z,99.99
2022-12-20T05:37:29.327Z,99.99
2022-12-20T05:38:29.347Z,99.99
2022-12-20T05:39:30.316Z,99.99
2022-12-20T05:40:29.340Z,99.99
2022-12-20T05:41:29.305Z,99.99
2022-12-20T05:42:29.288Z,99.99
2022-12-20T05:43:29.289Z,99.99
2022-12-20T05:44:29.305Z,99.99
2022-12-20T05:45:29.295Z,99.99
2022-12-20T05:46:29.331Z,99.99
2022-12-20T05:47:29.332Z,99.99
2022-12-20T05:48:29.235Z,99.99
2022-12-20T05:49:29.240Z,99.99
2022-12-20T05:50:29.283Z,99.99
2022-12-20T05:51:29.219Z,99.99
2022-12-20T05:52:29.211Z,99.99
2022-12-20T05:53:29.215Z,99.99
2022-12-20T05:54:29.198Z,99.99
2022-12-20T05:55:29.221Z,99.99
2022-12-20T05:56:29.178Z,99.99
2022-12-20T05:57:29.176Z,99.99
2022-12-20T05:58:29.174Z,99.99
2022-12-20T05:59:29.185Z,99.99
2022-12-20T06:00:29.185Z,99.99
2022-12-20T06:01:29.218Z,99.99
2022-12-20T06:02:29.442Z,99.99
2022-12-20T06:03:29.251Z,99.99
2022-12-20T06:04:29.125Z,99.99
2022-12-20T06:05:29.135Z,99.99
2022-12-20T06:06:29.100Z,99.99
2022-12-20T06:07:29.179Z,99.99
2022-12-20T06:08:29.089Z,99.99
2022-12-20T06:09:29.088Z,99.99
2022-12-20T06:10:29.104Z,99.99
2022-12-20T06:11:30.365Z,99.99
2022-12-20T06:12:30.077Z,99.99
2022-12-20T06:13:29.057Z,99.99
2022-12-20T06:14:29.049Z,99.99
2022-12-20T06:15:29.042Z,99.99
2022-12-20T06:16:29.084Z,99.99
2022-12-20T06:17:29.027Z,99.99
2022-12-20T06:18:29.024Z,99.99
2022-12-20T06:19:29.037Z,99.99
2022-12-20T06:20:29.015Z,99.99
2022-12-20T06:21:29.112Z,99.99
2022-12-20T06:22:28.986Z,99.99
2022-12-20T06:23:28.990Z,99.99
2022-12-20T06:24:28.978Z,99.99
2022-12-20T06:25:28.975Z,99.99
2022-12-20T06:26:28.996Z,99.99
2022-12-20T06:27:28.956Z,99.99
2022-12-20T06:28:28.947Z,99.99
2022-12-20T06:29:28.945Z,99.99
2022-12-20T06:30:33.668Z,99.99
2022-12-20T06:31:31.003Z,99.99
2022-12-20T06:32:28.946Z,99.99
2022-12-20T06:33:28.922Z,99.99
2022-12-20T06:34:28.901Z,99.99
2022-12-20T06:35:28.906Z,99.99
2022-12-20T06:36:28.920Z,99.99
2022-12-20T06:37:28.876Z,99.99
2022-12-20T06:38:28.874Z,99.99
2022-12-20T06:39:28.870Z,99.99
2022-12-20T06:40:28.856Z,99.99
2022-12-20T06:41:28.878Z,99.99
2022-12-20T06:42:28.832Z,99.99
2022-12-20T06:43:28.845Z,99.99
2022-12-20T06:44:28.827Z,99.99
2022-12-20T06:45:28.854Z,99.99
2022-12-20T06:46:28.869Z,99.99
2022-12-20T06:47:28.806Z,99.99
2022-12-20T06:48:28.824Z,99.99
2022-12-20T06:49:28.784Z,99.99
2022-12-20T06:50:28.778Z,99.99
2022-12-20T06:51:28.808Z,99.99
2022-12-20T06:52:28.771Z,99.99
2022-12-20T06:53:28.762Z,99.99
2022-12-20T06:54:28.744Z,99.99
2022-12-20T06:55:28.736Z,99.99
2022-12-20T06:56:28.754Z,99.99
2022-12-20T06:57:28.729Z,99.99
2022-12-20T06:58:28.724Z,99.99
2022-12-20T06:59:28.713Z,99.99
2022-12-20T07:00:28.702Z,99.99
2022-12-20T07:01:28.839Z,99.99
2022-12-20T07:02:28.895Z,99.99
2022-12-20T07:03:28.803Z,99.62
2022-12-20T07:04:29.669Z,99.82
2022-12-20T07:05:28.662Z,99.46
2022-12-20T07:06:28.677Z,99.30
2022-12-20T07:07:28.650Z,99.44
2022-12-20T07:08:28.641Z,99.86
2022-12-20T07:09:28.640Z,99.55
2022-12-20T07:10:28.619Z,99.96
2022-12-20T07:11:28.703Z,99.99
2022-12-20T07:12:28.620Z,99.99
2022-12-20T07:13:28.629Z,99.99
2022-12-20T07:14:28.606Z,99.99
2022-12-20T07:15:28.579Z,99.99
2022-12-20T07:16:29.667Z,99.99
2022-12-20T07:17:28.571Z,99.99
2022-12-20T07:18:28.568Z,99.99
2022-12-20T07:19:28.635Z,99.99
2022-12-20T07:20:28.545Z,99.99
2022-12-20T07:21:28.561Z,99.99
2022-12-20T07:22:28.538Z,99.99
2022-12-20T07:23:28.573Z,99.99
2022-12-20T07:24:28.521Z,99.99
2022-12-20T07:25:28.518Z,99.99
2022-12-20T07:26:28.532Z,99.99
2022-12-20T07:27:28.493Z,99.77
2022-12-20T07:28:28.489Z,99.77
2022-12-20T07:29:28.485Z,99.92
2022-12-20T07:30:28.473Z,99.82
2022-12-20T07:31:28.527Z,99.82
2022-12-20T07:32:28.479Z,99.92
2022-12-20T07:33:28.458Z,99.61
2022-12-20T07:34:28.440Z,99.82
2022-12-20T07:35:28.465Z,99.92
2022-12-20T07:36:28.454Z,99.71
2022-12-20T07:37:28.423Z,99.92
2022-12-20T07:38:28.409Z,99.99
2022-12-20T07:39:28.407Z,99.99
2022-12-20T07:40:28.553Z,99.99
2022-12-20T07:41:28.431Z,99.99
2022-12-20T07:42:36.148Z,99.99
2022-12-20T07:43:29.372Z,99.99
2022-12-20T07:44:28.374Z,99.99
2022-12-20T07:45:28.420Z,99.99
2022-12-20T07:46:28.487Z,99.99
2022-12-20T07:47:28.347Z,99.99
2022-12-20T07:48:28.335Z,99.99
2022-12-20T07:49:28.332Z,99.99
2022-12-20T07:50:28.489Z,99.99
2022-12-20T07:51:29.339Z,99.99
2022-12-20T07:52:28.311Z,99.68
2022-12-20T07:53:28.317Z,99.68
2022-12-20T07:54:28.286Z,99.73
2022-12-20T07:55:29.284Z,99.26
2022-12-20T07:56:28.302Z,99.32
2022-12-20T07:57:28.271Z,99.22
2022-12-20T07:58:28.288Z,99.22
2022-12-20T07:59:28.256Z,99.26
2022-12-20T08:00:28.247Z,99.16
2022-12-20T08:01:28.407Z,99.05
2022-12-20T08:02:28.348Z,99.57
2022-12-20T08:03:28.410Z,98.85
2022-12-20T08:04:28.237Z,99.16
2022-12-20T08:05:28.207Z,99.68
2022-12-20T08:06:28.255Z,99.88
2022-12-20T08:07:28.196Z,99.16
2022-12-20T08:08:28.190Z,99.52
2022-12-20T08:09:28.181Z,99.78
2022-12-20T08:10:28.206Z,99.47
2022-12-20T08:11:28.185Z,99.22
2022-12-20T08:12:28.169Z,99.43
2022-12-20T08:13:28.151Z,99.43
2022-12-20T08:14:28.156Z,98.80
2022-12-20T08:15:28.159Z,99.01
2022-12-20T08:16:28.189Z,98.75
2022-12-20T08:17:29.127Z,98.86
2022-12-20T08:18:28.110Z,98.86
2022-12-20T08:19:32.216Z,98.28
2022-12-20T08:20:29.165Z,98.03
2022-12-20T08:21:28.122Z,98.13
2022-12-20T08:22:28.105Z,98.13
2022-12-20T08:23:28.077Z,98.13
2022-12-20T08:24:28.067Z,98.24
2022-12-20T08:25:28.054Z,97.97
2022-12-20T08:26:28.058Z,98.13
2022-12-20T08:27:28.070Z,98.28
2022-12-20T08:28:28.023Z,98.24
2022-12-20T08:29:29.052Z,98.55
2022-12-20T08:30:28.012Z,98.55
2022-12-20T08:31:28.102Z,98.44
2022-12-20T08:32:28.028Z,98.03
2022-12-20T08:33:28.003Z,98.34
2022-12-20T08:34:27.999Z,98.34
2022-12-20T08:35:27.974Z,97.93
2022-12-20T08:36:27.978Z,97.99
2022-12-20T08:37:28.011Z,98.03
2022-12-20T08:38:27.960Z,97.72
2022-12-20T08:39:27.947Z,97.83
2022-12-20T08:40:27.940Z,97.41
2022-12-20T08:41:27.934Z,97.06
2022-12-20T08:42:27.960Z,97.16
2022-12-20T08:43:27.919Z,97.57
2022-12-20T08:44:27.919Z,97.06
2022-12-20T08:45:27.904Z,96.85
2022-12-20T08:46:27.981Z,97.26
2022-12-20T08:47:27.918Z,96.85
2022-12-20T08:48:27.899Z,96.75
2022-12-20T08:49:27.882Z,96.75
2022-12-20T08:50:27.874Z,96.85
2022-12-20T08:51:27.891Z,96.95
2022-12-20T08:52:27.880Z,96.95
2022-12-20T08:53:27.847Z,96.59
2022-12-20T08:54:27.857Z,96.49
2022-12-20T08:55:27.994Z,96.59
2022-12-20T08:56:28.823Z,96.29
2022-12-20T08:57:27.844Z,96.19
2022-12-20T08:58:27.818Z,96.49
2022-12-20T08:59:27.806Z,95.94
2022-12-20T09:00:27.796Z,95.73
2022-12-20T09:01:27.940Z,95.62
2022-12-20T09:02:27.940Z,95.31
2022-12-20T09:03:27.818Z,94.90
2022-12-20T09:04:27.785Z,94.75
2022-12-20T09:05:27.763Z,94.85
2022-12-20T09:06:27.752Z,94.85
2022-12-20T09:07:27.784Z,94.96
2022-12-20T09:08:27.754Z,94.96
2022-12-20T09:09:27.729Z,94.40
2022-12-20T09:10:27.728Z,94.40
2022-12-20T09:11:27.720Z,94.81
2022-12-20T09:12:27.726Z,93.78
2022-12-20T09:13:27.792Z,93.47
2022-12-20T09:14:27.723Z,93.78
2022-12-20T09:15:27.777Z,93.78
2022-12-20T09:16:27.741Z,93.78
2022-12-20T09:17:27.696Z,93.57
2022-12-20T09:18:27.662Z,93.73
2022-12-20T09:19:27.660Z,93.68
2022-12-20T09:20:27.647Z,93.63
2022-12-20T09:21:27.642Z,93.53
2022-12-20T09:22:27.663Z,93.12
2022-12-20T09:23:27.623Z,93.22
2022-12-20T09:24:27.613Z,93.12
2022-12-20T09:25:27.612Z,93.53
2022-12-20T09:26:27.620Z,92.66
2022-12-20T09:27:27.630Z,92.80
2022-12-20T09:28:27.591Z,92.50
2022-12-20T09:29:35.123Z,92.80
2022-12-20T09:30:29.580Z,92.70
2022-12-20T09:31:27.646Z,92.60
2022-12-20T09:32:27.594Z,92.50
2022-12-20T09:33:27.562Z,92.40
2022-12-20T09:34:27.543Z,92.50
2022-12-20T09:35:27.548Z,92.70
2022-12-20T09:36:27.543Z,92.50
2022-12-20T09:37:29.528Z,92.76
2022-12-20T09:38:27.519Z,92.80
2022-12-20T09:39:27.522Z,92.86
2022-12-20T09:40:27.509Z,93.18
2022-12-20T09:41:27.502Z,92.70
2022-12-20T09:42:27.512Z,92.97
2022-12-20T09:43:27.482Z,92.86
2022-12-20T09:44:27.478Z,92.35
2022-12-20T09:45:27.572Z,92.35
2022-12-20T09:46:27.529Z,92.25
2022-12-20T09:47:27.471Z,92.14
2022-12-20T09:48:27.449Z,92.04
2022-12-20T09:49:27.438Z,91.94
2022-12-20T09:50:27.439Z,91.58
2022-12-20T09:51:27.425Z,91.28
2022-12-20T09:52:27.464Z,91.22
2022-12-20T09:53:27.406Z,91.28
2022-12-20T09:54:27.410Z,91.63
2022-12-20T09:55:27.420Z,91.63
2022-12-20T09:56:27.391Z,91.73
2022-12-20T09:57:27.412Z,91.58
2022-12-20T09:58:27.369Z,92.00
2022-12-20T09:59:27.360Z,91.38
2022-12-20T10:00:27.342Z,91.63
2022-12-20T10:01:32.584Z,91.69
2022-12-20T10:02:57.118Z,91.73
2022-12-20T10:03:29.570Z,91.73
2022-12-20T10:04:27.644Z,92.00
2022-12-20T10:05:27.431Z,92.04
2022-12-20T10:06:27.322Z,91.32
2022-12-20T10:07:27.329Z,91.32
2022-12-20T10:08:27.319Z,91.32
2022-12-20T10:09:27.276Z,91.42
2022-12-20T10:10:27.277Z,92.25
2022-12-20T10:11:29.610Z,92.46
2022-12-20T10:12:28.294Z,92.76
2022-12-20T10:13:27.247Z,93.18
2022-12-20T10:14:27.276Z,93.07
2022-12-20T10:15:27.240Z,92.35
2022-12-20T10:16:27.328Z,92.04
2022-12-20T10:17:32.239Z,91.89
2022-12-20T10:18:29.237Z,91.38
2022-12-20T10:19:27.212Z,91.28
2022-12-20T10:20:27.205Z,91.48
2022-12-20T10:21:27.190Z,91.03
2022-12-20T10:22:27.185Z,90.82
2022-12-20T10:23:33.032Z,90.61
2022-12-20T10:24:29.185Z,90.57
2022-12-20T10:25:27.157Z,90.99
2022-12-20T10:26:27.176Z,90.37
2022-12-20T10:27:27.152Z,90.37
2022-12-20T10:28:27.171Z,90.12
2022-12-20T10:29:27.124Z,89.91
2022-12-20T10:30:27.129Z,89.81
2022-12-20T10:31:27.175Z,89.54
2022-12-20T10:32:27.142Z,89.54
2022-12-20T10:33:27.123Z,89.65
2022-12-20T10:34:31.686Z,89.71
2022-12-20T10:35:29.112Z,89.50
2022-12-20T10:36:27.338Z,89.40
2022-12-20T10:37:27.073Z,89.71
2022-12-20T10:38:27.092Z,89.40
2022-12-20T10:39:27.046Z,89.29
2022-12-20T10:40:46.368Z,89.61
2022-12-20T10:41:29.030Z,89.54
2022-12-20T10:42:27.076Z,89.91
2022-12-20T10:43:27.044Z,89.91
2022-12-20T10:44:27.023Z,89.91
2022-12-20T10:45:32.554Z,90.01
2022-12-20T10:46:29.042Z,90.01
2022-12-20T10:47:26.983Z,90.12
2022-12-20T10:48:27.010Z,90.22
2022-12-20T10:49:26.976Z,89.91
2022-12-20T10:50:26.965Z,90.01
2022-12-20T10:51:26.975Z,90.33
2022-12-20T10:52:26.945Z,90.16
2022-12-20T10:53:27.947Z,90.33
2022-12-20T10:54:27.244Z,90.22
2022-12-20T10:55:26.940Z,90.26
2022-12-20T10:56:26.914Z,90.12
2022-12-20T10:57:26.917Z,90.26
2022-12-20T10:58:26.913Z,90.37
2022-12-20T10:59:26.922Z,90.01
2022-12-20T11:00:26.882Z,90.43
2022-12-20T11:01:26.979Z,90.73
2022-12-20T11:02:29.268Z,90.37
2022-12-20T11:03:28.036Z,90.26
2022-12-20T11:04:26.926Z,90.26
2022-12-20T11:05:26.860Z,90.43
2022-12-20T11:06:26.845Z,90.47
2022-12-20T11:07:26.941Z,90.37
2022-12-20T11:08:40.457Z,90.53
2022-12-20T11:09:28.863Z,90.33
2022-12-20T11:10:26.806Z,90.37
2022-12-20T11:11:26.817Z,90.33
2022-12-20T11:12:26.793Z,90.33
2022-12-20T11:13:27.786Z,90.53
2022-12-20T11:14:26.814Z,90.73
2022-12-20T11:15:34.432Z,90.64
2022-12-20T11:16:27.799Z,90.53
2022-12-20T11:17:26.841Z,90.64
2022-12-20T11:18:26.752Z,90.53
2022-12-20T11:19:26.800Z,90.22
2022-12-20T11:20:26.769Z,90.26
2022-12-20T11:21:28.588Z,90.64
2022-12-20T11:22:27.715Z,90.53
2022-12-20T11:23:26.740Z,90.57
2022-12-20T11:24:26.745Z,90.43
2022-12-20T11:25:26.767Z,90.47
2022-12-20T11:26:26.697Z,90.57
2022-12-20T11:27:26.696Z,90.67
2022-12-20T11:28:26.678Z,90.78
2022-12-20T11:29:26.740Z,91.71
2022-12-20T11:30:26.670Z,91.50
2022-12-20T11:31:27.702Z,91.30
2022-12-20T11:32:26.664Z,91.30
2022-12-20T11:33:26.641Z,90.99
2022-12-20T11:34:26.671Z,91.19
2022-12-20T11:35:26.635Z,91.60
2022-12-20T11:36:26.614Z,91.60
2022-12-20T11:37:26.601Z,91.75
2022-12-20T11:38:26.606Z,91.60
2022-12-20T11:39:26.641Z,91.71
2022-12-20T11:40:26.584Z,92.33
2022-12-20T11:41:26.590Z,91.64
2022-12-20T11:42:26.594Z,91.64
2022-12-20T11:43:26.575Z,91.64
2022-12-20T11:44:27.406Z,91.85
2022-12-20T11:45:27.572Z,91.85
2022-12-20T11:46:26.589Z,91.85
2022-12-20T11:47:26.549Z,92.27
2022-12-20T11:48:26.522Z,92.68
2022-12-20T11:49:26.520Z,92.99
2022-12-20T11:50:26.529Z,93.09
2022-12-20T11:51:27.263Z,92.99
2022-12-20T11:52:27.505Z,92.78
2022-12-20T11:53:26.491Z,92.37
2022-12-20T11:54:26.475Z,92.37
2022-12-20T11:55:26.510Z,92.47
2022-12-20T11:56:26.471Z,92.37
2022-12-20T11:57:26.468Z,92.78
2022-12-20T11:58:26.435Z,93.19
2022-12-20T11:59:26.502Z,92.88
2022-12-20T12:00:26.456Z,93.19
2022-12-20T12:01:26.485Z,93.13
2022-12-20T12:02:26.532Z,92.88
2022-12-20T12:03:26.536Z,93.13
2022-12-20T12:04:26.397Z,93.13
2022-12-20T12:05:26.472Z,92.88
2022-12-20T12:06:26.391Z,93.03
2022-12-20T12:07:26.383Z,93.44
2022-12-20T12:08:26.407Z,93.44
2022-12-20T12:09:26.364Z,93.40
2022-12-20T12:10:26.381Z,93.34
2022-12-20T12:12:04.535Z,93.65
2022-12-20T12:12:28.346Z,93.30
2022-12-20T12:13:26.334Z,93.54
2022-12-20T12:14:26.326Z,93.54
2022-12-20T12:15:26.334Z,93.54
2022-12-20T12:16:26.375Z,93.34
2022-12-20T12:17:26.319Z,93.65
2022-12-20T12:18:26.299Z,94.68
2022-12-20T12:19:26.347Z,94.27
2022-12-20T12:20:26.303Z,94.17
2022-12-20T12:21:26.296Z,94.47
2022-12-20T12:22:26.316Z,94.37
2022-12-20T12:23:26.285Z,94.27
2022-12-20T12:24:26.268Z,94.27
2022-12-20T12:25:26.272Z,94.37
2022-12-20T12:26:26.258Z,94.27
2022-12-20T12:27:26.242Z,94.27
2022-12-20T12:28:26.258Z,94.27
2022-12-20T12:29:26.265Z,93.85
2022-12-20T12:30:26.258Z,93.65
2022-12-20T12:31:26.288Z,93.85
2022-12-20T12:32:26.202Z,93.34
2022-12-20T12:33:26.180Z,93.54
2022-12-20T12:34:26.176Z,93.19
2022-12-20T12:35:26.156Z,92.78
2022-12-20T12:36:26.299Z,92.57
2022-12-20T12:37:26.152Z,92.99
2022-12-20T12:38:26.163Z,93.19
2022-12-20T12:39:26.131Z,92.47
2022-12-20T12:40:26.130Z,92.57
2022-12-20T12:41:26.131Z,92.43
2022-12-20T12:42:26.141Z,92.78
2022-12-20T12:43:26.105Z,92.68
2022-12-20T12:44:26.101Z,92.27
2022-12-20T12:45:26.119Z,92.27
2022-12-20T12:46:26.152Z,91.96
2022-12-20T12:47:26.064Z,91.96
2022-12-20T12:48:26.063Z,91.96
2022-12-20T12:49:26.049Z,92.06
2022-12-20T12:50:26.045Z,92.06
2022-12-20T12:51:26.076Z,91.85
2022-12-20T12:52:27.898Z,91.91